sensor_id;sensor_type;location;lat;lon;timestamp;pressure;altitude;pressure_sealevel;temperature;humidity
60337;BME280;46978;50.288;28.624;2024-02-23T00:00:03;98315.38;;;4.70;96.21
60337;BME280;46978;50.288;28.624;2024-02-23T00:01:05;98317.09;;;4.67;96.28
60337;BME280;46978;50.288;28.624;2024-02-23T00:02:07;98309.37;;;4.67;96.36
60337;BME280;46978;50.288;28.624;2024-02-23T00:03:08;98311.13;;;4.65;96.51
60337;BME280;46978;50.288;28.624;2024-02-23T00:04:11;98310.29;;;4.65;96.71
60337;BME280;46978;50.288;28.624;2024-02-23T00:05:12;98306.00;;;4.64;96.84
60337;BME280;46978;50.288;28.624;2024-02-23T00:06:14;98317.14;;;4.63;96.77
60337;BME280;46978;50.288;28.624;2024-02-23T00:07:15;98310.33;;;4.62;97.07
60337;BME280;46978;50.288;28.624;2024-02-23T00:08:17;98318.88;;;4.62;97.07
60337;BME280;46978;50.288;28.624;2024-02-23T00:09:18;98306.02;;;4.62;97.09
60337;BME280;46978;50.288;28.624;2024-02-23T00:10:20;98308.59;;;4.62;97.11
60337;BME280;46978;50.288;28.624;2024-02-23T00:11:23;98307.75;;;4.62;97.32
60337;BME280;46978;50.288;28.624;2024-02-23T00:12:24;98308.61;;;4.61;97.51
60337;BME280;46978;50.288;28.624;2024-02-23T00:13:26;98300.06;;;4.60;97.52
60337;BME280;46978;50.288;28.624;2024-02-23T00:14:27;98306.06;;;4.59;97.45
60337;BME280;46978;50.288;28.624;2024-02-23T00:15:29;98308.64;;;4.58;97.55
60337;BME280;46978;50.288;28.624;2024-02-23T00:16:30;98305.22;;;4.59;97.60
60337;BME280;46978;50.288;28.624;2024-02-23T00:17:32;98310.38;;;4.57;97.77
60337;BME280;46978;50.288;28.624;2024-02-23T00:18:33;98309.50;;;4.57;97.86
60337;BME280;46978;50.288;28.624;2024-02-23T00:19:35;98308.67;;;4.55;97.88
60337;BME280;46978;50.288;28.624;2024-02-23T00:20:36;98303.54;;;4.55;98.09
60337;BME280;46978;50.288;28.624;2024-02-23T00:21:38;98309.53;;;4.54;98.02
60337;BME280;46978;50.288;28.624;2024-02-23T00:22:40;98305.28;;;4.53;98.09
60337;BME280;46978;50.288;28.624;2024-02-23T00:23:41;98293.33;;;4.48;98.13
60337;BME280;46978;50.288;28.624;2024-02-23T00:24:43;98308.70;;;4.53;98.24
60337;BME280;46978;50.288;28.624;2024-02-23T00:25:45;98311.28;;;4.52;98.41
60337;BME280;46978;50.288;28.624;2024-02-23T00:26:48;98301.86;;;4.51;98.38
60337;BME280;46978;50.288;28.624;2024-02-23T00:27:49;98309.56;;;4.51;98.39
60337;BME280;46978;50.288;28.624;2024-02-23T00:28:51;98305.31;;;4.49;98.48
60337;BME280;46978;50.288;28.624;2024-02-23T00:29:52;98301.87;;;4.49;98.65
60337;BME280;46978;50.288;28.624;2024-02-23T00:30:54;98310.47;;;4.48;98.72
60337;BME280;46978;50.288;28.624;2024-02-23T00:31:55;98303.63;;;4.47;98.78
60337;BME280;46978;50.288;28.624;2024-02-23T00:32:57;98297.64;;;4.46;98.88
60337;BME280;46978;50.288;28.624;2024-02-23T00:33:59;98296.77;;;4.46;98.89
60337;BME280;46978;50.288;28.624;2024-02-23T00:35:00;98299.34;;;4.46;98.82
60337;BME280;46978;50.288;28.624;2024-02-23T00:36:03;98301.08;;;4.44;99.06
60337;BME280;46978;50.288;28.624;2024-02-23T00:37:04;98301.08;;;4.44;99.09
60337;BME280;46978;50.288;28.624;2024-02-23T00:38:06;98300.25;;;4.43;99.13
60337;BME280;46978;50.288;28.624;2024-02-23T00:39:08;98306.23;;;4.42;99.15
60337;BME280;46978;50.288;28.624;2024-02-23T00:40:11;98299.39;;;4.41;99.28
60337;BME280;46978;50.288;28.624;2024-02-23T00:41:13;98299.39;;;4.41;99.32
60337;BME280;46978;50.288;28.624;2024-02-23T00:42:14;98303.70;;;4.39;99.42
60337;BME280;46978;50.288;28.624;2024-02-23T00:43:16;98308.84;;;4.39;99.53
60337;BME280;46978;50.288;28.624;2024-02-23T00:44:17;98301.13;;;4.39;99.50
60337;BME280;46978;50.288;28.624;2024-02-23T00:45:19;98299.42;;;4.38;99.52
60337;BME280;46978;50.288;28.624;2024-02-23T00:46:20;98300.31;;;4.37;99.76
60337;BME280;46978;50.288;28.624;2024-02-23T00:47:22;98298.59;;;4.36;99.82
60337;BME280;46978;50.288;28.624;2024-02-23T00:48:23;98301.16;;;4.36;99.73
60337;BME280;46978;50.288;28.624;2024-02-23T00:49:25;98299.44;;;4.37;99.82
60337;BME280;46978;50.288;28.624;2024-02-23T00:50:26;98304.59;;;4.35;99.85
60337;BME280;46978;50.288;28.624;2024-02-23T00:51:28;98294.31;;;4.35;99.81
60337;BME280;46978;50.288;28.624;2024-02-23T00:52:30;98300.34;;;4.34;99.95
60337;BME280;46978;50.288;28.624;2024-02-23T00:53:31;98302.03;;;4.34;100.00
60337;BME280;46978;50.288;28.624;2024-02-23T00:54:33;98304.62;;;4.32;100.00
60337;BME280;46978;50.288;28.624;2024-02-23T00:55:35;98290.08;;;4.33;100.00
60337;BME280;46978;50.288;28.624;2024-02-23T00:56:37;98297.78;;;4.33;100.00
60337;BME280;46978;50.288;28.624;2024-02-23T00:57:39;98297.78;;;4.33;100.00
60337;BME280;46978;50.288;28.624;2024-02-23T00:58:40;98289.24;;;4.29;100.00
60337;BME280;46978;50.288;28.624;2024-02-23T01:00:49;98293.42;;;4.39;100.00
60337;BME280;46978;50.288;28.624;2024-02-23T01:01:50;98294.37;;;4.29;100.00
60337;BME280;46978;50.288;28.624;2024-02-23T01:02:52;98297.83;;;4.28;100.00
60337;BME280;46978;50.288;28.624;2024-02-23T01:03:53;98290.98;;;4.27;100.00
60337;BME280;46978;50.288;28.624;2024-02-23T01:04:55;98297.84;;;4.26;100.00
60337;BME280;46978;50.288;28.624;2024-02-23T01:05:56;98288.41;;;4.27;100.00
60337;BME280;46978;50.288;28.624;2024-02-23T01:06:58;98294.41;;;4.26;100.00
60337;BME280;46978;50.288;28.624;2024-02-23T01:07:59;98293.56;;;4.25;100.00
60337;BME280;46978;50.288;28.624;2024-02-23T01:09:01;98286.70;;;4.26;100.00
60337;BME280;46978;50.288;28.624;2024-02-23T01:10:03;98296.14;;;4.25;100.00
60337;BME280;46978;50.288;28.624;2024-02-23T01:11:05;98287.59;;;4.25;100.00
60337;BME280;46978;50.288;28.624;2024-02-23T01:12:06;98298.70;;;4.25;100.00
60337;BME280;46978;50.288;28.624;2024-02-23T01:13:08;98295.30;;;4.25;100.00
60337;BME280;46978;50.288;28.624;2024-02-23T01:14:09;98298.72;;;4.24;100.00
60337;BME280;46978;50.288;28.624;2024-02-23T01:15:11;98291.88;;;4.23;100.00
60337;BME280;46978;50.288;28.624;2024-02-23T01:16:13;98290.17;;;4.23;100.00
60337;BME280;46978;50.288;28.624;2024-02-23T01:17:15;98296.16;;;4.22;100.00
60337;BME280;46978;50.288;28.624;2024-02-23T01:18:17;98294.44;;;4.23;100.00
60337;BME280;46978;50.288;28.624;2024-02-23T01:19:18;98299.59;;;4.21;100.00
60337;BME280;46978;50.288;28.624;2024-02-23T01:20:20;98297.01;;;4.23;100.00
60337;BME280;46978;50.288;28.624;2024-02-23T01:21:21;98297.02;;;4.21;100.00
60337;BME280;46978;50.288;28.624;2024-02-23T01:22:23;98305.59;;;4.22;100.00
60337;BME280;46978;50.288;28.624;2024-02-23T01:23:24;98302.16;;;4.21;100.00
60337;BME280;46978;50.288;28.624;2024-02-23T01:24:27;98297.03;;;4.20;100.00
60337;BME280;46978;50.288;28.624;2024-02-23T01:25:29;98303.90;;;4.19;100.00
60337;BME280;46978;50.288;28.624;2024-02-23T01:26:31;98303.90;;;4.19;100.00
60337;BME280;46978;50.288;28.624;2024-02-23T01:27:33;98299.61;;;4.20;100.00
60337;BME280;46978;50.288;28.624;2024-02-23T01:28:34;98298.78;;;4.18;100.00
60337;BME280;46978;50.288;28.624;2024-02-23T01:29:35;98303.06;;;4.19;100.00
60337;BME280;46978;50.288;28.624;2024-02-23T01:30:37;98297.06;;;4.17;100.00
60337;BME280;46978;50.288;28.624;2024-02-23T01:31:39;98297.08;;;4.15;100.00
60337;BME280;46978;50.288;28.624;2024-02-23T01:32:40;98295.38;;;4.16;100.00
60337;BME280;46978;50.288;28.624;2024-02-23T01:33:42;98295.38;;;4.16;100.00
60337;BME280;46978;50.288;28.624;2024-02-23T01:34:43;98303.94;;;4.15;100.00
60337;BME280;46978;50.288;28.624;2024-02-23T01:35:45;98294.53;;;4.13;100.00
60337;BME280;46978;50.288;28.624;2024-02-23T01:36:47;98302.23;;;4.13;100.00
60337;BME280;46978;50.288;28.624;2024-02-23T01:37:48;98294.54;;;4.12;100.00
60337;BME280;46978;50.288;28.624;2024-02-23T01:38:50;98291.13;;;4.11;100.00
60337;BME280;46978;50.288;28.624;2024-02-23T01:39:51;98293.72;;;4.10;100.00
60337;BME280;46978;50.288;28.624;2024-02-23T01:40:53;98292.00;;;4.09;100.00
60337;BME280;46978;50.288;28.624;2024-02-23T01:41:54;98292.89;;;4.08;100.00
60337;BME280;46978;50.288;28.624;2024-02-23T01:43:04;98296.30;;;4.08;100.00
60337;BME280;46978;50.288;28.624;2024-02-23T01:44:06;98299.72;;;4.07;100.00
60337;BME280;46978;50.288;28.624;2024-02-23T01:45:08;98294.59;;;4.07;100.00
60337;BME280;46978;50.288;28.624;2024-02-23T01:46:10;98285.20;;;4.06;100.00
60337;BME280;46978;50.288;28.624;2024-02-23T01:47:12;98288.63;;;4.05;100.00
60337;BME280;46978;50.288;28.624;2024-02-23T01:48:13;98292.91;;;4.05;100.00
60337;BME280;46978;50.288;28.624;2024-02-23T01:49:15;98294.61;;;4.04;100.00
60337;BME280;46978;50.288;28.624;2024-02-23T01:50:17;98299.76;;;4.03;100.00
60337;BME280;46978;50.288;28.624;2024-02-23T01:51:19;98297.20;;;4.01;100.00
60337;BME280;46978;50.288;28.624;2024-02-23T01:52:21;98298.94;;;4.01;100.00
60337;BME280;46978;50.288;28.624;2024-02-23T01:53:24;98297.20;;;4.01;100.00
60337;BME280;46978;50.288;28.624;2024-02-23T01:54:27;98297.22;;;4.00;100.00
60337;BME280;46978;50.288;28.624;2024-02-23T01:55:31;98296.38;;;3.99;100.00
60337;BME280;46978;50.288;28.624;2024-02-23T01:56:33;98299.80;;;3.98;100.00
60337;BME280;46978;50.288;28.624;2024-02-23T01:57:35;98295.55;;;3.97;100.00
60337;BME280;46978;50.288;28.624;2024-02-23T01:58:37;98303.25;;;3.97;100.00
60337;BME280;46978;50.288;28.624;2024-02-23T01:59:39;98299.86;;;3.95;100.00
60337;BME280;46978;50.288;28.624;2024-02-23T02:00:41;98298.16;;;3.92;100.00
60337;BME280;46978;50.288;28.624;2024-02-23T02:01:43;98301.58;;;3.91;100.00
60337;BME280;46978;50.288;28.624;2024-02-23T02:02:44;98299.91;;;3.89;100.00
60337;BME280;46978;50.288;28.624;2024-02-23T02:03:46;98301.60;;;3.88;100.00
60337;BME280;46978;50.288;28.624;2024-02-23T02:04:50;98295.64;;;3.86;100.00
60337;BME280;46978;50.288;28.624;2024-02-23T02:05:53;98297.38;;;3.86;100.00
60337;BME280;46978;50.288;28.624;2024-02-23T02:06:58;98293.94;;;3.84;100.00
60337;BME280;46978;50.288;28.624;2024-02-23T02:08:00;98301.66;;;3.82;100.00
60337;BME280;46978;50.288;28.624;2024-02-23T02:09:02;98286.27;;;3.81;100.00
60337;BME280;46978;50.288;28.624;2024-02-23T02:10:06;98282.88;;;3.79;100.00
60337;BME280;46978;50.288;28.624;2024-02-23T02:11:09;98290.59;;;3.77;100.00
60337;BME280;46978;50.288;28.624;2024-02-23T02:12:11;98283.74;;;3.76;100.00
60337;BME280;46978;50.288;28.624;2024-02-23T02:13:12;98283.77;;;3.73;100.00
60337;BME280;46978;50.288;28.624;2024-02-23T02:14:15;98285.50;;;3.71;100.00
60337;BME280;46978;50.288;28.624;2024-02-23T02:15:17;98292.38;;;3.69;100.00
60337;BME280;46978;50.288;28.624;2024-02-23T02:16:18;98282.97;;;3.66;100.00
60337;BME280;46978;50.288;28.624;2024-02-23T02:17:20;98286.41;;;3.64;100.00
60337;BME280;46978;50.288;28.624;2024-02-23T02:18:21;98283.85;;;3.62;100.00
60337;BME280;46978;50.288;28.624;2024-02-23T02:19:23;98277.06;;;3.58;100.00
60337;BME280;46978;50.288;28.624;2024-02-23T02:20:25;98283.05;;;3.57;100.00
60337;BME280;46978;50.288;28.624;2024-02-23T02:21:26;98283.89;;;3.56;100.00
60337;BME280;46978;50.288;28.624;2024-02-23T02:22:28;98283.06;;;3.54;100.00
60337;BME280;46978;50.288;28.624;2024-02-23T02:23:29;98269.42;;;3.50;100.00
60337;BME280;46978;50.288;28.624;2024-02-23T02:24:31;98277.97;;;3.49;100.00
60337;BME280;46978;50.288;28.624;2024-02-23T02:25:34;98282.27;;;3.47;100.00
60337;BME280;46978;50.288;28.624;2024-02-23T02:26:37;98282.28;;;3.46;100.00
60337;BME280;46978;50.288;28.624;2024-02-23T02:27:38;98275.44;;;3.45;100.00
60337;BME280;46978;50.288;28.624;2024-02-23T02:28:40;98281.42;;;3.44;100.00
60337;BME280;46978;50.288;28.624;2024-02-23T02:29:42;98281.43;;;3.42;100.00
60337;BME280;46978;50.288;28.624;2024-02-23T02:30:43;98281.44;;;3.40;100.00
60337;BME280;46978;50.288;28.624;2024-02-23T02:31:45;98287.45;;;3.39;100.00
60337;BME280;46978;50.288;28.624;2024-02-23T02:32:47;98276.33;;;3.37;100.00
60337;BME280;46978;50.288;28.624;2024-02-23T02:33:48;98275.49;;;3.37;100.00
60337;BME280;46978;50.288;28.624;2024-02-23T02:34:50;98278.89;;;3.37;100.00
60337;BME280;46978;50.288;28.624;2024-02-23T02:35:51;98277.20;;;3.38;100.00
60337;BME280;46978;50.288;28.624;2024-02-23T02:36:53;98280.61;;;3.38;100.00
60337;BME280;46978;50.288;28.624;2024-02-23T02:37:54;98280.61;;;3.38;100.00
60337;BME280;46978;50.288;28.624;2024-02-23T02:38:56;98280.59;;;3.40;100.00
60337;BME280;46978;50.288;28.624;2024-02-23T02:39:57;98283.16;;;3.40;100.00
60337;BME280;46978;50.288;28.624;2024-02-23T02:40:59;98273.75;;;3.40;100.00
60337;BME280;46978;50.288;28.624;2024-02-23T02:42:01;98275.47;;;3.40;100.00
60337;BME280;46978;50.288;28.624;2024-02-23T02:43:03;98306.23;;;3.41;100.00
60337;BME280;46978;50.288;28.624;2024-02-23T02:44:05;98281.43;;;3.42;100.00
60337;BME280;46978;50.288;28.624;2024-02-23T02:45:07;98279.75;;;3.41;100.00
60337;BME280;46978;50.288;28.624;2024-02-23T02:46:08;98285.73;;;3.40;100.00
60337;BME280;46978;50.288;28.624;2024-02-23T02:47:10;98280.59;;;3.40;100.00
60337;BME280;46978;50.288;28.624;2024-02-23T02:48:11;98284.02;;;3.39;100.00
60337;BME280;46978;50.288;28.624;2024-02-23T02:49:13;98285.73;;;3.38;100.00
60337;BME280;46978;50.288;28.624;2024-02-23T02:50:15;98293.44;;;3.37;100.00
60337;BME280;46978;50.288;28.624;2024-02-23T02:51:17;98283.19;;;3.35;100.00
60337;BME280;46978;50.288;28.624;2024-02-23T02:52:18;98279.80;;;3.33;100.00
60337;BME280;46978;50.288;28.624;2024-02-23T02:53:19;98280.66;;;3.31;100.00
60337;BME280;46978;50.288;28.624;2024-02-23T02:54:21;98275.54;;;3.29;100.00
60337;BME280;46978;50.288;28.624;2024-02-23T02:55:24;98288.38;;;3.26;100.00
60337;BME280;46978;50.288;28.624;2024-02-23T02:56:26;98275.58;;;3.23;100.00
60337;BME280;46978;50.288;28.624;2024-02-23T02:57:28;98280.72;;;3.20;100.00
60337;BME280;46978;50.288;28.624;2024-02-23T02:58:29;98281.58;;;3.17;100.00
60337;BME280;46978;50.288;28.624;2024-02-23T02:59:36;98282.47;;;3.16;100.00
60337;BME280;46978;50.288;28.624;2024-02-23T03:00:37;98274.80;;;3.13;100.00
60337;BME280;46978;50.288;28.624;2024-02-23T03:01:39;98273.09;;;3.09;100.00
60337;BME280;46978;50.288;28.624;2024-02-23T03:02:41;98281.64;;;3.07;100.00
60337;BME280;46978;50.288;28.624;2024-02-23T03:03:42;98269.71;;;3.05;100.00
60337;BME280;46978;50.288;28.624;2024-02-23T03:04:48;98282.53;;;3.04;100.00
60337;BME280;46978;50.288;28.624;2024-02-23T03:05:50;98273.98;;;3.00;100.00
60337;BME280;46978;50.288;28.624;2024-02-23T03:06:52;98268.03;;;2.98;100.00
60337;BME280;46978;50.288;28.624;2024-02-23T03:07:53;98279.14;;;2.96;100.00
60337;BME280;46978;50.288;28.624;2024-02-23T03:08:55;98282.58;;;2.95;100.00
60337;BME280;46978;50.288;28.624;2024-02-23T03:09:56;98281.72;;;2.93;100.00
60337;BME280;46978;50.288;28.624;2024-02-23T03:10:58;98291.13;;;2.91;100.00
60337;BME280;46978;50.288;28.624;2024-02-23T03:11:59;98283.45;;;2.87;100.00
60337;BME280;46978;50.288;28.624;2024-02-23T03:13:01;98282.62;;;2.85;100.00
60337;BME280;46978;50.288;28.624;2024-02-23T03:14:02;98280.91;;;2.83;100.00
60337;BME280;46978;50.288;28.624;2024-02-23T03:15:05;98286.05;;;2.80;100.00
60337;BME280;46978;50.288;28.624;2024-02-23T03:16:15;98281.78;;;2.79;100.00
60337;BME280;46978;50.288;28.624;2024-02-23T03:17:17;98282.66;;;2.76;100.00
60337;BME280;46978;50.288;28.624;2024-02-23T03:18:19;98283.51;;;2.75;100.00
60337;BME280;46978;50.288;28.624;2024-02-23T03:19:20;98286.91;;;2.76;100.00
60337;BME280;46978;50.288;28.624;2024-02-23T03:20:22;98289.49;;;2.71;100.00
60337;BME280;46978;50.288;28.624;2024-02-23T03:21:23;98283.53;;;2.71;100.00
60337;BME280;46978;50.288;28.624;2024-02-23T03:22:25;98279.25;;;2.69;100.00
60337;BME280;46978;50.288;28.624;2024-02-23T03:23:26;98281.82;;;2.68;100.00
60337;BME280;46978;50.288;28.624;2024-02-23T03:24:28;98279.27;;;2.66;100.00
60337;BME280;46978;50.288;28.624;2024-02-23T03:25:32;98280.14;;;2.67;100.00
60337;BME280;46978;50.288;28.624;2024-02-23T03:26:33;98279.27;;;2.65;100.00
60337;BME280;46978;50.288;28.624;2024-02-23T03:27:36;98277.59;;;2.64;100.00
60337;BME280;46978;50.288;28.624;2024-02-23T03:28:37;98266.50;;;2.63;100.00
60337;BME280;46978;50.288;28.624;2024-02-23T03:29:39;98269.91;;;2.62;100.00
60337;BME280;46978;50.288;28.624;2024-02-23T03:30:41;98266.51;;;2.62;100.00
60337;BME280;46978;50.288;28.624;2024-02-23T03:31:42;98273.33;;;2.60;100.00
60337;BME280;46978;50.288;28.624;2024-02-23T03:32:44;98274.20;;;2.59;100.00
60337;BME280;46978;50.288;28.624;2024-02-23T03:33:45;98271.65;;;2.57;100.00
60337;BME280;46978;50.288;28.624;2024-02-23T03:34:47;98269.94;;;2.56;100.00
60337;BME280;46978;50.288;28.624;2024-02-23T03:35:48;98281.02;;;2.57;100.00
60337;BME280;46978;50.288;28.624;2024-02-23T03:36:50;98273.34;;;2.55;100.00
60337;BME280;46978;50.288;28.624;2024-02-23T03:37:52;98258.86;;;2.54;100.00
60337;BME280;46978;50.288;28.624;2024-02-23T03:38:53;98270.80;;;2.50;100.00
60337;BME280;46978;50.288;28.624;2024-02-23T03:39:55;98272.52;;;2.51;100.00
60337;BME280;46978;50.288;28.624;2024-02-23T03:40:56;98272.52;;;2.51;100.00
60337;BME280;46978;50.288;28.624;2024-02-23T03:41:58;98269.95;;;2.50;100.00
60337;BME280;46978;50.288;28.624;2024-02-23T03:43:00;98269.11;;;2.51;100.00
60337;BME280;46978;50.288;28.624;2024-02-23T03:44:01;98269.11;;;2.51;100.00
60337;BME280;46978;50.288;28.624;2024-02-23T03:45:04;98269.11;;;2.51;100.00
60337;BME280;46978;50.288;28.624;2024-02-23T03:46:06;98267.39;;;2.50;100.00
60337;BME280;46978;50.288;28.624;2024-02-23T03:47:08;98267.39;;;2.50;100.00
60337;BME280;46978;50.288;28.624;2024-02-23T03:48:09;98269.11;;;2.53;100.00
60337;BME280;46978;50.288;28.624;2024-02-23T03:49:12;98264.83;;;2.53;100.00
60337;BME280;46978;50.288;28.624;2024-02-23T03:50:14;98276.78;;;2.54;100.00
60337;BME280;46978;50.288;28.624;2024-02-23T03:51:16;98271.66;;;2.54;100.00
60337;BME280;46978;50.288;28.624;2024-02-23T03:52:17;98275.91;;;2.55;100.00
60337;BME280;46978;50.288;28.624;2024-02-23T03:53:19;98272.50;;;2.55;100.00
60337;BME280;46978;50.288;28.624;2024-02-23T03:54:20;98270.78;;;2.55;100.00
60337;BME280;46978;50.288;28.624;2024-02-23T03:55:23;98276.78;;;2.54;100.00
60337;BME280;46978;50.288;28.624;2024-02-23T03:56:25;98270.77;;;2.57;100.00
60337;BME280;46978;50.288;28.624;2024-02-23T03:57:27;98269.94;;;2.56;100.00
60337;BME280;46978;50.288;28.624;2024-02-23T03:58:29;98264.81;;;2.56;100.00
60337;BME280;46978;50.288;28.624;2024-02-23T03:59:30;98270.77;;;2.58;100.00
60337;BME280;46978;50.288;28.624;2024-02-23T04:00:32;98275.05;;;2.59;100.00
60337;BME280;46978;50.288;28.624;2024-02-23T04:01:34;98274.20;;;2.59;100.00
60337;BME280;46978;50.288;28.624;2024-02-23T04:02:35;98267.36;;;2.59;100.00
60337;BME280;46978;50.288;28.624;2024-02-23T04:03:36;98263.95;;;2.60;100.00
60337;BME280;46978;50.288;28.624;2024-02-23T04:04:38;98273.31;;;2.61;100.00
60337;BME280;46978;50.288;28.624;2024-02-23T04:05:39;98268.20;;;2.61;100.00
60337;BME280;46978;50.288;28.624;2024-02-23T04:06:41;98269.91;;;2.62;100.00
60337;BME280;46978;50.288;28.624;2024-02-23T04:07:43;98260.51;;;2.63;100.00
60337;BME280;46978;50.288;28.624;2024-02-23T04:08:44;98266.50;;;2.63;100.00
60337;BME280;46978;50.288;28.624;2024-02-23T04:09:46;98267.34;;;2.65;100.00
60337;BME280;46978;50.288;28.624;2024-02-23T04:10:48;98258.78;;;2.65;100.00
60337;BME280;46978;50.288;28.624;2024-02-23T04:11:50;98261.34;;;2.66;100.00
60337;BME280;46978;50.288;28.624;2024-02-23T04:12:51;98271.58;;;2.68;100.00
60337;BME280;46978;50.288;28.624;2024-02-23T04:13:53;98269.02;;;2.68;100.00
60337;BME280;46978;50.288;28.624;2024-02-23T04:14:54;98268.16;;;2.69;100.00
60337;BME280;46978;50.288;28.624;2024-02-23T04:15:56;98262.20;;;2.68;100.00
60337;BME280;46978;50.288;28.624;2024-02-23T04:17:04;98266.45;;;2.69;100.00
60337;BME280;46978;50.288;28.624;2024-02-23T04:18:06;98259.63;;;2.70;100.00
60337;BME280;46978;50.288;28.624;2024-02-23T04:19:08;98266.45;;;2.69;100.00
60337;BME280;46978;50.288;28.624;2024-02-23T04:20:10;98270.72;;;2.71;100.00
60337;BME280;46978;50.288;28.624;2024-02-23T04:21:11;98266.45;;;2.69;100.00
60337;BME280;46978;50.288;28.624;2024-02-23T04:22:13;98266.44;;;2.71;100.00
60337;BME280;46978;50.288;28.624;2024-02-23T04:23:14;98273.28;;;2.71;100.00
60337;BME280;46978;50.288;28.624;2024-02-23T04:24:16;98271.55;;;2.73;100.00
60337;BME280;46978;50.288;28.624;2024-02-23T04:25:19;98267.31;;;2.72;100.00
60337;BME280;46978;50.288;28.624;2024-02-23T04:26:21;98263.87;;;2.71;100.00
60337;BME280;46978;50.288;28.624;2024-02-23T04:27:22;98263.87;;;2.71;100.00
60337;BME280;46978;50.288;28.624;2024-02-23T04:28:24;98256.20;;;2.71;100.00
60337;BME280;46978;50.288;28.624;2024-02-23T04:29:25;98260.47;;;2.72;100.00
60337;BME280;46978;50.288;28.624;2024-02-23T04:30:27;98268.16;;;2.71;100.00
60337;BME280;46978;50.288;28.624;2024-02-23T04:31:29;98269.00;;;2.71;100.00
60337;BME280;46978;50.288;28.624;2024-02-23T04:32:30;98272.44;;;2.72;100.00
60337;BME280;46978;50.288;28.624;2024-02-23T04:33:32;98269.88;;;2.72;100.00
60337;BME280;46978;50.288;28.624;2024-02-23T04:34:33;98271.55;;;2.73;100.00
60337;BME280;46978;50.288;28.624;2024-02-23T04:35:35;98271.55;;;2.73;100.00
60337;BME280;46978;50.288;28.624;2024-02-23T04:36:37;98269.87;;;2.73;100.00
60337;BME280;46978;50.288;28.624;2024-02-23T04:37:38;98268.14;;;2.74;100.00
60337;BME280;46978;50.288;28.624;2024-02-23T04:38:40;98271.55;;;2.73;100.00
60337;BME280;46978;50.288;28.624;2024-02-23T04:39:43;98280.95;;;2.74;100.00
60337;BME280;46978;50.288;28.624;2024-02-23T04:40:45;98269.86;;;2.75;100.00
60337;BME280;46978;50.288;28.624;2024-02-23T04:41:47;98269.86;;;2.75;100.00
60337;BME280;46978;50.288;28.624;2024-02-23T04:42:49;98270.71;;;2.74;100.00
60337;BME280;46978;50.288;28.624;2024-02-23T04:43:50;98273.27;;;2.74;100.00
60337;BME280;46978;50.288;28.624;2024-02-23T04:44:52;98271.55;;;2.74;100.00
60337;BME280;46978;50.288;28.624;2024-02-23T04:45:53;98271.55;;;2.73;100.00
60337;BME280;46978;50.288;28.624;2024-02-23T04:46:55;98269.00;;;2.73;100.00
60337;BME280;46978;50.288;28.624;2024-02-23T04:47:56;98272.43;;;2.73;100.00
60337;BME280;46978;50.288;28.624;2024-02-23T04:48:58;98275.00;;;2.72;100.00
60337;BME280;46978;50.288;28.624;2024-02-23T04:49:59;98283.52;;;2.72;100.00
60337;BME280;46978;50.288;28.624;2024-02-23T04:51:01;98270.72;;;2.72;100.00
60337;BME280;46978;50.288;28.624;2024-02-23T04:52:05;98274.12;;;2.71;100.00
60337;BME280;46978;50.288;28.624;2024-02-23T04:53:06;98274.12;;;2.73;100.00
60337;BME280;46978;50.288;28.624;2024-02-23T04:54:08;98273.28;;;2.72;100.00
60337;BME280;46978;50.288;28.624;2024-02-23T04:55:09;98275.00;;;2.72;100.00
60337;BME280;46978;50.288;28.624;2024-02-23T04:56:11;98268.16;;;2.71;100.00
60337;BME280;46978;50.288;28.624;2024-02-23T04:57:13;98271.56;;;2.71;100.00
60337;BME280;46978;50.288;28.624;2024-02-23T04:58:14;98275.84;;;2.71;100.00
60337;BME280;46978;50.288;28.624;2024-02-23T04:59:16;98262.20;;;2.70;100.00
60337;BME280;46978;50.288;28.624;2024-02-23T05:00:18;98267.32;;;2.70;100.00
60337;BME280;46978;50.288;28.624;2024-02-23T05:01:20;98272.44;;;2.70;100.00
60337;BME280;46978;50.288;28.624;2024-02-23T05:02:21;98263.05;;;2.67;100.00
60337;BME280;46978;50.288;28.624;2024-02-23T05:03:23;98265.59;;;2.71;100.00
60337;BME280;46978;50.288;28.624;2024-02-23T05:04:24;98269.88;;;2.70;100.00
60337;BME280;46978;50.288;28.624;2024-02-23T05:05:26;98277.56;;;2.70;100.00
60337;BME280;46978;50.288;28.624;2024-02-23T05:06:28;98277.56;;;2.70;100.00
60337;BME280;46978;50.288;28.624;2024-02-23T05:07:30;98276.69;;;2.71;100.00
60337;BME280;46978;50.288;28.624;2024-02-23T05:08:31;98276.69;;;2.71;100.00
60337;BME280;46978;50.288;28.624;2024-02-23T05:09:33;98278.41;;;2.71;100.00
60337;BME280;46978;50.288;28.624;2024-02-23T05:10:35;98277.56;;;2.72;100.00
60337;BME280;46978;50.288;28.624;2024-02-23T05:11:36;98285.24;;;2.72;100.00
60337;BME280;46978;50.288;28.624;2024-02-23T05:12:38;98285.24;;;2.72;100.00
60337;BME280;46978;50.288;28.624;2024-02-23T05:13:39;98280.96;;;2.72;100.00
60337;BME280;46978;50.288;28.624;2024-02-23T05:14:41;98286.09;;;2.72;100.00
60337;BME280;46978;50.288;28.624;2024-02-23T05:15:42;98290.37;;;2.72;100.00
60337;BME280;46978;50.288;28.624;2024-02-23T05:16:44;98294.61;;;2.73;100.00
60337;BME280;46978;50.288;28.624;2024-02-23T05:17:45;98291.20;;;2.72;100.00
60337;BME280;46978;50.288;28.624;2024-02-23T05:18:47;98291.20;;;2.74;100.00
60337;BME280;46978;50.288;28.624;2024-02-23T05:19:48;98297.16;;;2.74;100.00
60337;BME280;46978;50.288;28.624;2024-02-23T05:20:50;98296.31;;;2.75;100.00
60337;BME280;46978;50.288;28.624;2024-02-23T05:21:51;98294.59;;;2.76;100.00
60337;BME280;46978;50.288;28.624;2024-02-23T05:22:53;98298.03;;;2.78;100.00
60337;BME280;46978;50.288;28.624;2024-02-23T05:23:54;98307.39;;;2.79;100.00
60337;BME280;46978;50.288;28.624;2024-02-23T05:24:56;98302.27;;;2.80;100.00